LAX weather

Los Angeles International Airport
Los Angeles, California, United States

Public forecast

Using degrees Fahrenheit for public forecast. Weather courtesy of forecast.io.

Current aviation weather report (METAR) for Los Angeles International Airport

Retrieved 2019/10/23 00:53 UTC (9 minutes ago):

KLAX 230053Z 27008KT 10SM CLR 25/08 A2995 RMK AO2 SLP139 T02500083

Aviation forecast (TAF) for Los Angeles International Airport

Retrieved 2019-10-23 00:36 UTC (26 minutes ago):

TAF KLAX 222333Z 2300/2406 25012KT P6SM SKC FM230400 VRB03KT P6SM SKC FM230800 07004KT P6SM SKC FM232100 26010KT P6SM SKC FM240400 VRB03KT P6SM SKC